Time;durP1;ratioP1;P1;durP2;ratioP2;P2;SDS_P1;SDS_P2;PMS_P1;PMS_P2;Temp;Humidity;BMP_temperature;BMP_pressure;BME280_temperature;BME280_humidity;BME280_pressure;Samples;Min_cycle;Max_cycle;Signal;HPM_P1;HPM_P2
2022/08/25 00:02:34;;;;;;;0.40;0.40;;;20.40;99.90;;;;;;5094758;28;20211;-68
2022/08/25 00:05:26;;;;;;;0.40;0.40;;;20.30;99.90;;;;;;5094733;28;20212;-67
2022/08/25 00:08:17;;;;;;;0.40;0.40;;;20.30;99.90;;;;;;5094392;28;20207;-69
2022/08/25 00:11:06;;;;;;;0.40;0.40;;;20.30;99.90;;;;;;5094370;28;20207;-68
2022/08/25 00:13:56;;;;;;;0.50;0.50;;;20.20;99.90;;;;;;5094934;28;20588;-68
2022/08/25 00:16:45;;;;;;;0.40;0.40;;;20.30;99.90;;;;;;5094652;28;20203;-67
2022/08/25 00:19:35;;;;;;;0.40;0.40;;;20.20;99.90;;;;;;5094186;28;20651;-67
2022/08/25 00:22:23;;;;;;;0.40;0.40;;;20.20;99.90;;;;;;5094350;28;20216;-67
2022/08/25 00:25:13;;;;;;;0.40;0.40;;;20.20;99.90;;;;;;5094248;28;20212;-69
2022/08/25 00:28:01;;;;;;;0.40;0.40;;;20.20;99.90;;;;;;5093770;28;20261;-67
2022/08/25 00:30:55;;;;;;;0.40;0.40;;;20.10;99.90;;;;;;5093997;28;20300;-69
2022/08/25 00:33:44;;;;;;;0.40;0.40;;;20.10;99.90;;;;;;5094273;28;20200;-68
2022/08/25 00:36:32;;;;;;;0.40;0.40;;;20.10;99.90;;;;;;5094615;28;20653;-69
2022/08/25 00:39:22;;;;;;;0.50;0.50;;;20.00;99.90;;;;;;5093830;28;20250;-69
2022/08/25 00:42:12;;;;;;;0.40;0.40;;;20.00;99.90;;;;;;5093386;28;20212;-70
2022/08/25 00:45:05;;;;;;;0.40;0.40;;;20.00;99.90;;;;;;5093982;28;20227;-68
2022/08/25 00:47:53;;;;;;;0.40;0.40;;;19.90;99.90;;;;;;5093921;28;20344;-70
2022/08/25 00:50:43;;;;;;;0.40;0.40;;;19.90;99.90;;;;;;5093192;28;20207;-68
2022/08/25 00:53:32;;;;;;;0.40;0.40;;;19.90;99.90;;;;;;5093817;28;20192;-68
2022/08/25 00:56:21;;;;;;;0.40;0.40;;;19.90;99.90;;;;;;5094530;28;20220;-67
2022/08/25 00:59:11;;;;;;;0.40;0.40;;;19.80;99.90;;;;;;5093555;28;20208;-68
2022/08/25 01:02:00;;;;;;;0.40;0.40;;;19.80;99.90;;;;;;5093707;28;20272;-67
2022/08/25 01:04:48;;;;;;;0.40;0.40;;;19.80;99.90;;;;;;5093615;28;20630;-67
2022/08/25 01:07:37;;;;;;;0.40;0.40;;;19.70;99.90;;;;;;5093557;28;20204;-67
2022/08/25 01:10:26;;;;;;;0.40;0.40;;;19.70;99.90;;;;;;5093224;28;20713;-69
2022/08/25 01:13:19;;;;;;;0.40;0.40;;;19.70;99.90;;;;;;5093480;28;20196;-68
2022/08/25 01:16:08;;;;;;;0.40;0.40;;;19.70;99.90;;;;;;5093300;28;20246;-68
2022/08/25 01:18:59;;;;;;;0.40;0.40;;;19.70;99.90;;;;;;5093332;28;20231;-67
2022/08/25 01:21:51;;;;;;;0.40;0.40;;;19.70;99.90;;;;;;5092815;28;20200;-69
2022/08/25 01:24:44;;;;;;;0.40;0.40;;;19.60;99.90;;;;;;5093227;28;20578;-69
2022/08/25 01:27:32;;;;;;;0.40;0.40;;;19.60;99.90;;;;;;5092763;28;20204;-67
2022/08/25 01:30:20;;;;;;;0.40;0.40;;;19.60;99.90;;;;;;5092864;28;20695;-67
2022/08/25 01:33:10;;;;;;;0.40;0.40;;;19.60;99.90;;;;;;5093219;28;20614;-68
2022/08/25 01:35:58;;;;;;;0.40;0.40;;;19.60;99.90;;;;;;5092900;28;20731;-71
2022/08/25 01:38:48;;;;;;;0.40;0.40;;;19.60;99.90;;;;;;5087792;28;20196;-67
2022/08/25 01:41:44;;;;;;;0.40;0.40;;;19.50;99.90;;;;;;5092371;28;20204;-67
2022/08/25 01:44:35;;;;;;;0.40;0.40;;;19.50;99.90;;;;;;5092623;28;20223;-68
2022/08/25 01:47:24;;;;;;;0.50;0.50;;;19.50;99.90;;;;;;5092950;28;20208;-67
2022/08/25 01:50:12;;;;;;;0.40;0.40;;;19.50;99.90;;;;;;5092534;28;20745;-67
2022/08/25 01:53:06;;;;;;;0.40;0.40;;;19.50;99.90;;;;;;5092241;28;20684;-69
2022/08/25 01:56:00;;;;;;;0.40;0.40;;;19.40;99.90;;;;;;5092635;28;20292;-68
2022/08/25 01:58:50;;;;;;;0.50;0.50;;;19.40;99.90;;;;;;5092376;28;20289;-67
2022/08/25 02:01:38;;;;;;;0.40;0.40;;;19.40;99.90;;;;;;5092550;28;20199;-65
2022/08/25 02:04:30;;;;;;;0.40;0.40;;;19.40;99.90;;;;;;5092381;28;20227;-69
2022/08/25 02:07:19;;;;;;;0.50;0.50;;;19.40;99.90;;;;;;5091863;28;20292;-68
2022/08/25 02:10:08;;;;;;;0.50;0.50;;;19.40;99.90;;;;;;5092120;28;20633;-68
2022/08/25 02:12:57;;;;;;;0.40;0.40;;;19.40;99.90;;;;;;5091754;28;20192;-66
2022/08/25 02:15:50;;;;;;;0.40;0.40;;;19.30;99.90;;;;;;5092231;28;20692;-69
2022/08/25 02:18:38;;;;;;;0.40;0.40;;;19.40;99.90;;;;;;5091863;28;20203;-67
2022/08/25 02:21:27;;;;;;;0.40;0.40;;;19.30;99.90;;;;;;5091956;28;20203;-66
2022/08/25 02:24:16;;;;;;;0.40;0.40;;;19.30;99.90;;;;;;5091598;28;20216;-68
2022/08/25 02:27:04;;;;;;;0.40;0.40;;;19.30;99.90;;;;;;5092403;28;20228;-66
2022/08/25 02:29:54;;;;;;;0.40;0.40;;;19.30;99.90;;;;;;5091632;28;20277;-67
2022/08/25 02:32:42;;;;;;;0.40;0.40;;;19.30;99.90;;;;;;5091953;28;20668;-67
2022/08/25 02:35:31;;;;;;;0.40;0.40;;;19.30;99.90;;;;;;5091809;28;20227;-66
2022/08/25 02:38:19;;;;;;;0.40;0.40;;;19.30;99.90;;;;;;5091823;28;20242;-67
2022/08/25 02:41:12;;;;;;;0.47;0.47;;;19.20;99.90;;;;;;5091053;28;20583;-67
2022/08/25 02:44:01;;;;;;;0.47;0.47;;;19.20;99.90;;;;;;5092195;28;20219;-67
2022/08/25 02:46:51;;;;;;;0.40;0.40;;;19.20;99.90;;;;;;5091241;28;20708;-68
2022/08/25 02:49:39;;;;;;;0.40;0.40;;;19.20;99.90;;;;;;5091617;28;20288;-69
2022/08/25 02:52:28;;;;;;;0.40;0.40;;;19.10;99.90;;;;;;5091754;28;20200;-65
2022/08/25 02:55:17;;;;;;;0.40;0.40;;;19.10;99.90;;;;;;5090949;28;20215;-67
2022/08/25 02:58:05;;;;;;;0.50;0.50;;;19.10;99.90;;;;;;5091650;28;20210;-67
2022/08/25 03:00:55;;;;;;;0.40;0.40;;;19.00;99.90;;;;;;5091814;28;20196;-69
2022/08/25 03:03:46;;;;;;;0.40;0.40;;;19.00;99.90;;;;;;5091090;28;20269;-68
2022/08/25 03:06:35;;;;;;;0.40;0.40;;;19.00;99.90;;;;;;5091728;28;20203;-66
2022/08/25 03:09:23;;;;;;;0.40;0.40;;;19.00;99.90;;;;;;5091416;28;20668;-66
2022/08/25 03:12:11;;;;;;;0.40;0.40;;;19.00;99.90;;;;;;5090969;28;20686;-67
2022/08/25 03:14:59;;;;;;;0.50;0.50;;;18.90;99.90;;;;;;5091593;28;20216;-66
2022/08/25 03:17:49;;;;;;;0.40;0.40;;;18.90;99.90;;;;;;5094082;28;20199;-69
2022/08/25 03:20:39;;;;;;;0.40;0.40;;;18.90;99.90;;;;;;5098114;28;20325;-66
2022/08/25 03:23:27;;;;;;;0.40;0.40;;;18.90;99.90;;;;;;5098130;28;20290;-67
2022/08/25 03:29:21;;;;;;;0.50;0.50;;;18.80;99.90;;;;;;5097887;28;20685;-66
2022/08/25 03:32:10;;;;;;;0.47;0.47;;;18.80;99.90;;;;;;5098025;28;20695;-67
2022/08/25 03:35:00;;;;;;;0.40;0.40;;;18.70;99.90;;;;;;5097957;28;20219;-65
2022/08/25 03:37:50;;;;;;;0.40;0.40;;;18.70;99.90;;;;;;5097457;28;20202;-65
2022/08/25 03:40:38;;;;;;;0.40;0.40;;;18.70;99.90;;;;;;5097759;28;20200;-64
2022/08/25 03:43:26;;;;;;;0.40;0.40;;;18.60;99.90;;;;;;5098181;28;20235;-67
2022/08/25 03:46:19;;;;;;;0.40;0.40;;;18.70;99.90;;;;;;5097365;28;20220;-65
2022/08/25 03:49:09;;;;;;;0.43;0.43;;;18.60;99.90;;;;;;5097475;28;20200;-67
2022/08/25 03:51:57;;;;;;;0.40;0.40;;;18.60;99.90;;;;;;5098098;28;20203;-68
2022/08/25 03:54:46;;;;;;;0.40;0.40;;;18.60;99.90;;;;;;5097819;28;20640;-66
2022/08/25 03:57:34;;;;;;;0.40;0.40;;;18.60;99.90;;;;;;5097067;28;20249;-66
2022/08/25 04:00:23;;;;;;;0.40;0.40;;;18.60;99.90;;;;;;5097414;28;20202;-65
2022/08/25 04:03:11;;;;;;;0.40;0.40;;;18.60;99.90;;;;;;5097911;28;20207;-68
2022/08/25 04:06:01;;;;;;;0.40;0.40;;;18.50;99.90;;;;;;5097670;28;20219;-66
2022/08/25 04:08:51;;;;;;;0.40;0.40;;;18.50;99.90;;;;;;5097687;28;20200;-67
2022/08/25 04:11:41;;;;;;;0.50;0.50;;;18.50;99.90;;;;;;5097709;28;20211;-68
2022/08/25 04:14:30;;;;;;;0.40;0.40;;;18.40;99.90;;;;;;5097709;28;20273;-66
2022/08/25 04:17:18;;;;;;;0.40;0.40;;;18.50;99.90;;;;;;5097022;28;20203;-67
2022/08/25 04:20:08;;;;;;;0.47;0.47;;;18.50;99.90;;;;;;5097114;28;20199;-66
2022/08/25 04:22:59;;;;;;;0.40;0.40;;;18.50;99.90;;;;;;5096982;28;20196;-67
2022/08/25 04:25:47;;;;;;;0.40;0.40;;;18.50;99.90;;;;;;5097408;28;20277;-66
2022/08/25 04:28:37;;;;;;;0.40;0.40;;;18.50;99.90;;;;;;5096570;28;20211;-68
2022/08/25 04:31:25;;;;;;;0.40;0.40;;;18.50;99.90;;;;;;5093185;28;20200;-66
2022/08/25 04:34:14;;;;;;;0.50;0.50;;;18.50;99.90;;;;;;5093435;28;20241;-66
2022/08/25 04:37:17;;;;;;;0.40;0.40;;;18.60;99.90;;;;;;5094415;28;20199;-66
2022/08/25 04:40:06;;;;;;;0.50;0.50;;;18.60;99.90;;;;;;5093192;28;20200;-67
2022/08/25 04:42:55;;;;;;;0.40;0.40;;;18.60;99.90;;;;;;5093456;28;20287;-68
2022/08/25 04:45:44;;;;;;;0.50;0.50;;;18.70;99.90;;;;;;5093881;28;20227;-67
2022/08/25 04:48:32;;;;;;;0.40;0.40;;;18.70;99.90;;;;;;5094039;28;20279;-66
2022/08/25 04:51:23;;;;;;;0.40;0.40;;;18.70;99.90;;;;;;5093130;28;20207;-67
2022/08/25 04:54:15;;;;;;;0.40;0.40;;;18.70;99.90;;;;;;5093818;28;20672;-66
2022/08/25 04:57:04;;;;;;;0.40;0.40;;;18.70;99.90;;;;;;5093945;28;20200;-69
2022/08/25 04:59:53;;;;;;;0.40;0.40;;;18.80;99.90;;;;;;5092726;28;20201;-71
2022/08/25 05:02:42;;;;;;;0.40;0.40;;;18.80;99.90;;;;;;5093742;28;20196;-70
2022/08/25 05:05:30;;;;;;;0.40;0.40;;;18.90;99.90;;;;;;5093576;28;20222;-67
2022/08/25 05:08:20;;;;;;;0.40;0.40;;;18.90;99.90;;;;;;5093580;28;20700;-68
2022/08/25 05:11:11;;;;;;;0.40;0.40;;;18.90;99.90;;;;;;5092856;28;20207;-67
2022/08/25 05:14:01;;;;;;;0.40;0.40;;;19.00;99.90;;;;;;5093640;28;20207;-69
2022/08/25 05:16:50;;;;;;;0.40;0.40;;;19.10;99.90;;;;;;5093456;28;20699;-69
2022/08/25 05:19:39;;;;;;;0.40;0.40;;;19.10;99.90;;;;;;5093013;28;20668;-68
2022/08/25 05:22:27;;;;;;;0.40;0.40;;;19.20;99.90;;;;;;5093284;28;20196;-67
2022/08/25 05:25:15;;;;;;;0.40;0.40;;;19.20;99.90;;;;;;5093226;28;20227;-66
2022/08/25 05:28:04;;;;;;;0.40;0.40;;;19.20;99.90;;;;;;5092489;28;20192;-67
2022/08/25 05:30:58;;;;;;;0.40;0.40;;;19.20;99.90;;;;;;5092902;28;20200;-68
2022/08/25 05:33:46;;;;;;;0.40;0.40;;;19.20;99.90;;;;;;5093165;28;20195;-68
2022/08/25 05:36:37;;;;;;;0.40;0.40;;;19.20;99.90;;;;;;5093315;28;20200;-66
2022/08/25 05:39:25;;;;;;;0.40;0.40;;;19.20;99.90;;;;;;5079977;28;20730;-69
2022/08/25 05:42:13;;;;;;;0.40;0.40;;;19.20;99.90;;;;;;5090912;28;20581;-66
2022/08/25 05:45:02;;;;;;;0.40;0.40;;;19.30;99.90;;;;;;5092569;28;20692;-66
2022/08/25 05:47:50;;;;;;;0.50;0.50;;;19.40;99.90;;;;;;5092502;28;20200;-69
2022/08/25 05:50:38;;;;;;;0.60;0.60;;;19.40;99.90;;;;;;5091609;28;20660;-67
2022/08/25 05:53:30;;;;;;;0.40;0.40;;;19.50;99.90;;;;;;5092039;28;20584;-67
2022/08/25 05:56:21;;;;;;;0.40;0.40;;;19.60;99.90;;;;;;5092919;28;20216;-68
2022/08/25 05:59:09;;;;;;;3.75;1.60;;;19.70;99.90;;;;;;5089686;28;20204;-66
2022/08/25 06:05:03;;;;;;;0.40;0.40;;;20.00;99.90;;;;;;5085623;28;20239;-66
2022/08/25 06:07:52;;;;;;;0.40;0.40;;;20.20;99.90;;;;;;5093082;28;20203;-67
2022/08/25 06:10:41;;;;;;;0.80;0.80;;;20.20;99.90;;;;;;5091466;28;20203;-66
2022/08/25 06:13:29;;;;;;;0.40;0.40;;;20.40;99.90;;;;;;5091683;28;20709;-66
2022/08/25 06:16:18;;;;;;;0.40;0.40;;;20.60;99.90;;;;;;5082742;28;20794;-66
2022/08/25 06:19:07;;;;;;;0.40;0.40;;;20.80;99.90;;;;;;5092301;28;20245;-67
2022/08/25 06:21:56;;;;;;;0.60;0.60;;;20.90;99.90;;;;;;5092716;28;20715;-65
2022/08/25 06:24:44;;;;;;;0.40;0.40;;;21.00;99.90;;;;;;5078867;28;20217;-66
2022/08/25 06:27:34;;;;;;;0.40;0.40;;;21.20;99.90;;;;;;5086135;28;20196;-65
2022/08/25 06:30:24;;;;;;;0.40;0.40;;;21.30;99.90;;;;;;5082554;28;20193;-66
2022/08/25 06:33:16;;;;;;;0.40;0.40;;;21.50;99.90;;;;;;5076028;28;20200;-65
2022/08/25 06:36:05;;;;;;;0.43;0.43;;;21.50;99.90;;;;;;5090379;28;20235;-65
2022/08/25 06:38:53;;;;;;;0.40;0.40;;;21.60;99.90;;;;;;5080173;28;20207;-66
2022/08/25 06:41:41;;;;;;;0.40;0.40;;;21.60;99.90;;;;;;5092752;28;20200;-65
2022/08/25 06:44:31;;;;;;;0.40;0.40;;;21.70;99.90;;;;;;5092867;28;20240;-66
2022/08/25 06:47:19;;;;;;;0.40;0.40;;;21.80;99.90;;;;;;5093188;28;20204;-65
2022/08/25 06:50:08;;;;;;;0.40;0.40;;;22.00;99.90;;;;;;5087201;28;20579;-66
2022/08/25 06:52:56;;;;;;;0.40;0.40;;;22.00;99.90;;;;;;5072876;28;20223;-65
2022/08/25 06:55:44;;;;;;;0.40;0.40;;;22.00;99.90;;;;;;5073504;28;20217;-65
2022/08/25 06:58:33;;;;;;;0.40;0.40;;;22.20;99.90;;;;;;5090696;28;20676;-65
2022/08/25 07:01:25;;;;;;;0.40;0.40;;;21.80;99.90;;;;;;5078053;28;20200;-66
2022/08/25 07:04:14;;;;;;;1.85;1.58;;;22.40;99.90;;;;;;5091519;28;20199;-65
2022/08/25 07:07:03;;;;;;;0.40;0.40;;;22.40;99.90;;;;;;5077653;28;20223;-65
2022/08/25 07:09:51;;;;;;;0.40;0.40;;;22.50;99.90;;;;;;5070443;28;20196;-65
2022/08/25 07:12:39;;;;;;;0.68;0.68;;;22.60;99.90;;;;;;5079185;28;20684;-66
2022/08/25 07:15:27;;;;;;;0.70;0.70;;;22.80;99.90;;;;;;5088169;28;20224;-65
2022/08/25 07:18:17;;;;;;;0.40;0.40;;;22.80;99.90;;;;;;5072540;28;20234;-65
2022/08/25 07:21:06;;;;;;;0.50;0.50;;;22.80;99.90;;;;;;5086888;28;20201;-65
2022/08/25 07:23:57;;;;;;;0.40;0.40;;;23.00;99.90;;;;;;5081009;28;20214;-66
2022/08/25 07:26:46;;;;;;;0.70;0.70;;;23.00;99.90;;;;;;5080266;28;20664;-66
2022/08/25 07:29:37;;;;;;;0.50;0.50;;;23.10;99.90;;;;;;5071805;28;20200;-65
2022/08/25 07:32:29;;;;;;;0.40;0.40;;;23.30;99.90;;;;;;5071919;28;20204;-64
2022/08/25 07:35:22;;;;;;;0.40;0.40;;;23.50;99.90;;;;;;5072025;28;20232;-65
2022/08/25 07:38:13;;;;;;;0.45;0.45;;;23.50;99.90;;;;;;5071760;28;20260;-66
2022/08/25 07:41:07;;;;;;;0.60;0.60;;;23.60;99.90;;;;;;5071333;28;20212;-67
2022/08/25 07:43:56;;;;;;;0.40;0.40;;;23.50;99.90;;;;;;5070502;28;20866;-65
2022/08/25 07:46:45;;;;;;;0.40;0.40;;;23.70;99.90;;;;;;5073173;28;20224;-65
2022/08/25 07:49:33;;;;;;;0.40;0.40;;;23.60;99.90;;;;;;5070813;28;20247;-65
2022/08/25 07:52:28;;;;;;;0.40;0.40;;;23.80;99.90;;;;;;5075283;28;20692;-64
2022/08/25 07:55:17;;;;;;;0.47;0.47;;;24.20;99.90;;;;;;5085076;28;20223;-65
2022/08/25 07:58:06;;;;;;;0.77;0.77;;;24.50;99.90;;;;;;5084656;28;20723;-65
2022/08/25 08:00:55;;;;;;;0.50;0.50;;;24.60;99.90;;;;;;5081779;28;20249;-65
2022/08/25 08:03:44;;;;;;;0.50;0.50;;;24.70;99.90;;;;;;5085881;28;20208;-65
2022/08/25 08:06:40;;;;;;;0.40;0.40;;;24.70;99.90;;;;;;5077831;28;20235;-66
2022/08/25 08:09:32;;;;;;;1.02;1.02;;;24.70;99.90;;;;;;5090411;28;20208;-65
2022/08/25 08:12:20;;;;;;;0.60;0.60;;;24.70;99.90;;;;;;5092781;28;20200;-65
2022/08/25 08:15:10;;;;;;;0.40;0.40;;;24.40;99.90;;;;;;5090828;28;20299;-65
2022/08/25 08:17:59;;;;;;;0.40;0.40;;;24.30;99.90;;;;;;5080125;28;20314;-65
2022/08/25 08:20:49;;;;;;;0.40;0.40;;;24.60;99.90;;;;;;5082391;28;20212;-65
2022/08/25 08:23:37;;;;;;;1.30;1.30;;;24.80;99.90;;;;;;5091157;28;20718;-66
2022/08/25 08:26:26;;;;;;;0.40;0.40;;;25.00;99.90;;;;;;5092537;28;20619;-65
2022/08/25 08:29:35;;;;;;;0.40;0.40;;;25.20;99.90;;;;;;5082173;28;20200;-64
2022/08/25 08:32:24;;;;;;;0.60;0.60;;;25.20;99.90;;;;;;5087472;28;20205;-65
2022/08/25 08:35:27;;;;;;;1.38;1.00;;;25.20;99.90;;;;;;5081405;28;20334;-65
2022/08/25 08:38:15;;;;;;;0.40;0.40;;;25.00;99.90;;;;;;5083498;28;20196;-67
2022/08/25 08:45:11;;;;;;;0.40;0.40;;;25.00;99.90;;;;;;5073092;28;20235;-66
2022/08/25 08:48:17;;;;;;;1.45;1.45;;;25.20;99.90;;;;;;5077564;28;20224;-66
2022/08/25 08:51:16;;;;;;;0.40;0.40;;;25.40;99.90;;;;;;5075964;28;20577;-66
2022/08/25 08:54:12;;;;;;;0.40;0.40;;;25.50;99.90;;;;;;5078748;28;20201;-66
2022/08/25 08:57:09;;;;;;;0.40;0.40;;;25.50;99.90;;;;;;5088829;28;20211;-66
2022/08/25 09:00:00;;;;;;;0.40;0.40;;;25.60;99.90;;;;;;5078045;28;20677;-66
2022/08/25 09:02:52;;;;;;;0.40;0.40;;;25.90;99.90;;;;;;5083028;28;20245;-66
2022/08/25 09:05:45;;;;;;;0.40;0.40;;;26.20;99.90;;;;;;5089419;28;20223;-66
2022/08/25 09:11:29;;;;;;;0.40;0.40;;;27.00;99.90;;;;;;5010544;28;20207;-71
2022/08/25 09:14:30;;;;;;;0.40;0.40;;;26.50;99.90;;;;;;5013673;28;20260;-71
2022/08/25 09:17:28;;;;;;;0.40;0.40;;;26.50;99.90;;;;;;5013082;28;20579;-71
2022/08/25 09:20:34;;;;;;;0.40;0.40;;;26.40;99.90;;;;;;5025050;28;20222;-71
2022/08/25 09:23:33;;;;;;;0.40;0.40;;;26.50;99.90;;;;;;5014769;28;20198;-72
2022/08/25 09:26:31;;;;;;;0.40;0.40;;;26.50;99.90;;;;;;5019598;28;20215;-72
2022/08/25 09:29:25;;;;;;;0.40;0.40;;;26.80;99.90;;;;;;5033495;28;20222;-72
2022/08/25 09:32:15;;;;;;;0.47;0.47;;;27.00;99.90;;;;;;5028930;28;20202;-73
2022/08/25 09:35:17;;;;;;;0.75;0.75;;;26.80;99.90;;;;;;5052946;28;20197;-72
2022/08/25 09:38:08;;;;;;;0.40;0.40;;;26.30;99.90;;;;;;5047148;28;20226;-73
2022/08/25 09:40:59;;;;;;;1.10;1.10;;;26.10;99.90;;;;;;5031740;28;20230;-72
2022/08/25 09:43:53;;;;;;;0.40;0.40;;;25.90;99.90;;;;;;5031579;28;20208;-72
2022/08/25 09:46:55;;;;;;;0.40;0.40;;;25.70;99.90;;;;;;5026731;28;20226;-71
2022/08/25 09:49:46;;;;;;;0.40;0.40;;;25.70;99.90;;;;;;5032553;28;20244;-72
2022/08/25 09:52:36;;;;;;;0.30;0.30;;;25.60;99.90;;;;;;5031932;28;20209;-72
2022/08/25 09:55:30;;;;;;;0.40;0.40;;;25.70;99.90;;;;;;5013676;28;20202;-72
2022/08/25 09:58:22;;;;;;;0.40;0.40;;;25.70;99.90;;;;;;5032119;28;20601;-72
2022/08/25 10:01:15;;;;;;;0.40;0.40;;;25.80;99.90;;;;;;5031811;28;20202;-71
2022/08/25 10:04:07;;;;;;;0.30;0.30;;;25.80;99.90;;;;;;5023485;28;20198;-72
2022/08/25 10:07:22;;;;;;;0.40;0.40;;;25.90;99.90;;;;;;5033363;28;20220;-70
2022/08/25 10:10:18;;;;;;;0.40;0.40;;;25.80;99.90;;;;;;5023569;28;20225;-71
2022/08/25 10:13:13;;;;;;;0.40;0.40;;;25.90;99.90;;;;;;5031921;28;20225;-71
2022/08/25 10:16:09;;;;;;;0.30;0.30;;;25.90;99.90;;;;;;5032626;28;20205;-71
2022/08/25 10:19:22;;;;;;;0.40;0.40;;;26.00;99.90;;;;;;5010944;28;20800;-72
2022/08/25 10:22:12;;;;;;;0.40;0.40;;;25.90;99.90;;;;;;5011655;28;20230;-71
2022/08/25 10:25:01;;;;;;;0.40;0.40;;;25.90;99.90;;;;;;5011506;28;20214;-72
2022/08/25 10:28:00;;;;;;;0.40;0.40;;;25.90;99.90;;;;;;5010493;28;20222;-72
2022/08/25 10:30:58;;;;;;;0.30;0.30;;;26.00;99.90;;;;;;5011680;28;20226;-72
2022/08/25 10:33:58;;;;;;;0.40;0.40;;;26.00;99.90;;;;;;5013149;28;20260;-72
2022/08/25 10:36:59;;;;;;;0.40;0.40;;;26.20;99.90;;;;;;5011091;28;20205;-72
2022/08/25 10:39:59;;;;;;;0.40;0.40;;;26.30;99.90;;;;;;5012195;28;20236;-72
2022/08/25 10:43:01;;;;;;;0.40;0.40;;;26.40;99.90;;;;;;5020307;28;20210;-72
2022/08/25 10:45:54;;;;;;;0.30;0.30;;;26.50;99.90;;;;;;5010375;28;20213;-72
2022/08/25 10:48:58;;;;;;;0.40;0.40;;;26.80;99.90;;;;;;5010956;28;20229;-71
2022/08/25 10:52:00;;;;;;;0.35;0.35;;;26.90;99.90;;;;;;5009454;28;20207;-72
2022/08/25 10:54:57;;;;;;;0.50;0.50;;;26.90;99.90;;;;;;5010866;28;20210;-71
2022/08/25 10:57:55;;;;;;;0.40;0.40;;;27.00;99.90;;;;;;5012883;28;20198;-72
2022/08/25 11:00:53;;;;;;;0.52;0.52;;;27.20;99.90;;;;;;5029201;28;20615;-72
2022/08/25 11:03:50;;;;;;;0.50;0.50;;;27.40;99.90;;;;;;5016382;28;20209;-71
2022/08/25 11:06:44;;;;;;;0.40;0.40;;;27.70;99.90;;;;;;5029452;28;20770;-71
2022/08/25 11:09:41;;;;;;;0.40;0.40;;;27.60;99.90;;;;;;5019933;28;20230;-71
2022/08/25 11:12:33;;;;;;;0.50;0.50;;;27.70;99.90;;;;;;5022010;28;20205;-71
2022/08/25 11:15:28;;;;;;;0.40;0.40;;;27.50;99.90;;;;;;5015829;28;20207;-71
2022/08/25 11:18:19;;;;;;;0.40;0.40;;;27.80;99.90;;;;;;5030756;28;20682;-71
2022/08/25 11:21:12;;;;;;;0.40;0.40;;;27.90;99.90;;;;;;5026984;28;20206;-71
2022/08/25 11:24:08;;;;;;;0.40;0.40;;;27.90;99.90;;;;;;5023263;28;20198;-71
2022/08/25 11:26:57;;;;;;;0.40;0.40;;;27.80;99.90;;;;;;5015166;28;20213;-72
2022/08/25 11:29:55;;;;;;;0.40;0.40;;;27.90;99.90;;;;;;5025132;28;20226;-73
2022/08/25 11:32:47;;;;;;;0.40;0.40;;;28.00;99.90;;;;;;5023628;28;20206;-73
2022/08/25 11:35:39;;;;;;;0.40;0.40;;;28.20;99.90;;;;;;5025486;28;20716;-72
2022/08/25 11:38:43;;;;;;;0.40;0.40;;;28.50;99.90;;;;;;5023551;28;20202;-73
2022/08/25 11:41:41;;;;;;;0.60;0.60;;;28.40;99.90;;;;;;5025308;28;20601;-72
2022/08/25 11:44:45;;;;;;;0.40;0.40;;;28.70;99.90;;;;;;5025854;28;20214;-72
2022/08/25 11:47:58;;;;;;;0.40;0.40;;;28.70;99.90;;;;;;5032743;28;20217;-71
2022/08/25 11:51:01;;;;;;;0.40;0.40;;;28.60;99.90;;;;;;5030860;28;20295;-70
2022/08/25 11:54:21;;;;;;;0.70;0.70;;;28.40;99.90;;;;;;5030891;28;20208;-69
2022/08/25 11:57:19;;;;;;;0.35;0.35;;;28.10;99.90;;;;;;5027619;28;20278;-70
2022/08/25 12:00:13;;;;;;;0.30;0.30;;;28.00;99.90;;;;;;5048229;28;20214;-70
2022/08/25 12:03:37;;;;;;;0.60;0.60;;;27.90;99.90;;;;;;5048592;28;20221;-70
2022/08/25 12:06:29;;;;;;;0.95;0.95;;;27.90;99.90;;;;;;5050088;28;20221;-70
2022/08/25 12:09:20;;;;;;;0.40;0.40;;;27.90;99.90;;;;;;5047971;28;20229;-70
2022/08/25 12:12:35;;;;;;;0.57;0.57;;;28.10;99.90;;;;;;5047380;28;20198;-70
2022/08/25 12:15:27;;;;;;;0.40;0.40;;;28.20;99.90;;;;;;5048757;28;20224;-70
2022/08/25 12:18:39;;;;;;;0.35;0.35;;;28.30;99.90;;;;;;5050897;28;20653;-71
2022/08/25 12:21:33;;;;;;;0.40;0.40;;;28.50;99.90;;;;;;5048065;28;20265;-70
2022/08/25 12:24:25;;;;;;;0.40;0.40;;;28.60;99.90;;;;;;5031288;28;20206;-70
2022/08/25 12:27:24;;;;;;;0.40;0.40;;;28.50;99.90;;;;;;5024671;28;20291;-70
2022/08/25 12:30:20;;;;;;;0.40;0.40;;;28.30;99.90;;;;;;5024979;28;20755;-71
2022/08/25 12:33:17;;;;;;;0.40;0.40;;;28.30;99.90;;;;;;5031422;28;20216;-70
2022/08/25 12:36:09;;;;;;;0.40;0.40;;;28.40;99.90;;;;;;5014656;28;20671;-71
2022/08/25 12:39:16;;;;;;;0.40;0.40;;;28.70;99.90;;;;;;5013781;28;20230;-71
2022/08/25 12:42:07;;;;;;;0.40;0.40;;;29.00;99.90;;;;;;5028109;28;20624;-71
2022/08/25 12:45:12;;;;;;;0.40;0.40;;;29.40;99.90;;;;;;5023738;28;20272;-72
2022/08/25 12:48:39;;;;;;;0.40;0.40;;;29.40;99.90;;;;;;5018967;28;20213;-72
2022/08/25 12:51:46;;;;;;;0.40;0.40;;;29.70;99.90;;;;;;5019806;28;20194;-72
2022/08/25 12:54:47;;;;;;;0.40;0.40;;;29.90;99.90;;;;;;5034362;28;20570;-72
2022/08/25 12:57:40;;;;;;;0.40;0.40;;;30.60;99.90;;;;;;5034062;28;20214;-72
2022/08/25 13:00:33;;;;;;;0.40;0.40;;;31.30;99.90;;;;;;5032584;28;20276;-72
2022/08/25 13:03:43;;;;;;;0.40;0.40;;;32.50;99.90;;;;;;5033900;28;20206;-72
2022/08/25 13:06:45;;;;;;;0.40;0.40;;;33.70;99.90;;;;;;5030467;28;20217;-72
2022/08/25 13:10:17;;;;;;;0.40;0.40;;;35.40;99.90;;;;;;5029404;28;20236;-72
2022/08/25 13:13:10;;;;;;;0.50;0.50;;;37.00;99.90;;;;;;5011994;28;20210;-69
2022/08/25 13:16:01;;;;;;;0.40;0.40;;;38.20;97.30;;;;;;5012292;28;20210;-70
2022/08/25 13:18:51;;;;;;;0.40;0.40;;;39.70;88.80;;;;;;5011533;28;20301;-71
2022/08/25 13:21:43;;;;;;;0.40;0.40;;;39.60;88.90;;;;;;5012648;28;20627;-71
2022/08/25 13:24:35;;;;;;;0.70;0.70;;;38.20;88.90;;;;;;5030307;28;20213;-73
2022/08/25 13:27:29;;;;;;;0.40;0.40;;;36.90;91.60;;;;;;5033544;28;20202;-72
2022/08/25 13:30:25;;;;;;;0.40;0.40;;;38.40;89.60;;;;;;5027156;28;20226;-71
2022/08/25 13:33:17;;;;;;;0.40;0.40;;;39.40;87.00;;;;;;5022763;28;20210;-69
2022/08/25 13:39:17;;;;;;;0.40;0.40;;;43.10;71.40;;;;;;5030469;28;20221;-69
2022/08/25 13:42:26;;;;;;;0.40;0.40;;;43.20;71.20;;;;;;5031483;28;20258;-70
2022/08/25 13:45:19;;;;;;;0.80;0.80;;;43.70;67.00;;;;;;5030921;28;20284;-70
2022/08/25 13:48:12;;;;;;;0.55;0.55;;;43.50;65.60;;;;;;5030403;28;20194;-70
2022/08/25 13:51:22;;;;;;;0.40;0.40;;;43.50;64.40;;;;;;5014000;28;20207;-70
2022/08/25 13:54:27;;;;;;;0.50;0.50;;;43.80;63.80;;;;;;5011347;28;20585;-71
2022/08/25 13:57:21;;;;;;;0.50;0.50;;;44.40;61.40;;;;;;5019560;28;20202;-71
2022/08/25 14:00:12;;;;;;;0.50;0.50;;;44.70;59.00;;;;;;5031011;28;20333;-71
2022/08/25 14:03:02;;;;;;;0.40;0.40;;;44.20;59.60;;;;;;5031204;28;20264;-71
2022/08/25 14:06:08;;;;;;;0.40;0.40;;;43.00;60.80;;;;;;5019593;28;20237;-71
2022/08/25 14:09:15;;;;;;;0.50;0.50;;;42.20;62.20;;;;;;5023141;28;20618;-70
2022/08/25 14:12:05;;;;;;;2.58;1.35;;;40.60;64.60;;;;;;5027219;28;20601;-70
2022/08/25 14:14:59;;;;;;;0.40;0.40;;;40.00;66.70;;;;;;5028234;28;20249;-70
2022/08/25 14:18:01;;;;;;;0.40;0.40;;;40.60;65.80;;;;;;5028218;28;20210;-71
2022/08/25 14:20:53;;;;;;;0.40;0.40;;;41.00;64.40;;;;;;5027267;28;20222;-69
2022/08/25 14:23:42;;;;;;;0.45;0.45;;;41.20;63.70;;;;;;5031853;28;20225;-71
2022/08/25 14:26:31;;;;;;;0.70;0.70;;;41.70;62.30;;;;;;5031993;28;20202;-70
2022/08/25 14:29:22;;;;;;;0.40;0.40;;;41.30;62.10;;;;;;5031625;28;20226;-71
2022/08/25 14:32:11;;;;;;;0.50;0.50;;;41.10;61.90;;;;;;5030017;28;20210;-70
2022/08/25 14:34:59;;;;;;;0.40;0.40;;;40.90;63.30;;;;;;5031187;28;20578;-69
2022/08/25 14:37:57;;;;;;;0.40;0.40;;;40.50;63.70;;;;;;5031380;28;20281;-72
2022/08/25 14:40:46;;;;;;;0.50;0.50;;;39.50;65.20;;;;;;5031077;28;20214;-75
2022/08/25 14:43:35;;;;;;;0.40;0.40;;;38.60;67.50;;;;;;5028918;28;20217;-72
2022/08/25 14:46:29;;;;;;;0.40;0.40;;;37.80;68.90;;;;;;5028109;28;20216;-73
2022/08/25 14:49:21;;;;;;;0.40;0.40;;;37.70;69.50;;;;;;5010539;28;20697;-75
2022/08/25 14:52:19;;;;;;;0.40;0.40;;;37.90;69.00;;;;;;5009922;28;20856;-71
2022/08/25 14:55:11;;;;;;;0.40;0.40;;;37.80;69.30;;;;;;5010324;28;20203;-70
2022/08/25 14:58:08;;;;;;;0.40;0.40;;;37.70;69.70;;;;;;5010343;28;20217;-71
2022/08/25 15:00:57;;;;;;;0.40;0.40;;;38.60;68.80;;;;;;5009613;28;20250;-70
2022/08/25 15:03:50;;;;;;;0.40;0.40;;;39.80;66.80;;;;;;5010679;28;20663;-71
2022/08/25 15:06:40;;;;;;;0.40;0.40;;;41.50;63.10;;;;;;5010386;28;20199;-72
2022/08/25 15:09:29;;;;;;;0.40;0.40;;;41.50;63.20;;;;;;5009909;28;20257;-70
2022/08/25 15:12:21;;;;;;;0.40;0.40;;;42.00;62.10;;;;;;5028207;28;20202;-70
2022/08/25 15:15:31;;;;;;;0.40;0.40;;;42.00;60.50;;;;;;5108733;22;20236;-65
2022/08/25 15:18:20;;;;;;;0.50;0.50;;;42.20;61.10;;;;;;5091470;28;20688;-65